Time;durP1;ratioP1;P1;durP2;ratioP2;P2;SDS_P1;SDS_P2;PMS_P1;PMS_P2;Temp;Humidity;BMP_temperature;BMP_pressure;BME280_temperature;BME280_humidity;BME280_pressure;Samples;Min_cycle;Max_cycle;Signal;HPM_P1;HPM_P2
2020/12/25 00:02:00;;;;;;;1.07;0.97;;;4.30;99.90;;;;;;5073600;28;20193;-65
2020/12/25 00:04:26;;;;;;;1.00;1.00;;;4.20;99.90;;;;;;5073609;28;20166;-65
2020/12/25 00:06:51;;;;;;;0.80;0.80;;;4.30;99.90;;;;;;5073043;28;20173;-67
2020/12/25 00:09:17;;;;;;;1.20;1.10;;;4.10;99.90;;;;;;5074013;28;20554;-67
2020/12/25 00:11:43;;;;;;;0.97;0.87;;;4.10;99.90;;;;;;5074310;28;20178;-65
2020/12/25 00:14:09;;;;;;;1.07;1.00;;;4.00;99.90;;;;;;5073696;28;20170;-67
2020/12/25 00:16:35;;;;;;;2.20;1.00;;;4.10;99.90;;;;;;5074125;28;20401;-67
2020/12/25 00:19:02;;;;;;;1.07;1.00;;;4.20;99.90;;;;;;5073612;28;20930;-66
2020/12/25 00:21:27;;;;;;;1.07;1.00;;;4.10;99.90;;;;;;5073360;28;20949;-67
2020/12/25 00:23:53;;;;;;;0.90;0.90;;;4.20;99.90;;;;;;5073710;28;20461;-67
2020/12/25 00:26:22;;;;;;;1.10;1.00;;;4.40;99.90;;;;;;5073910;28;20260;-67
2020/12/25 00:28:47;;;;;;;1.27;1.27;;;4.50;99.90;;;;;;5073540;28;20200;-67
2020/12/25 00:31:23;;;;;;;1.57;1.07;;;4.40;99.90;;;;;;5073684;28;20409;-67
2020/12/25 00:33:49;;;;;;;1.43;1.33;;;4.30;99.90;;;;;;5074087;28;20594;-67
2020/12/25 00:36:23;;;;;;;1.13;1.00;;;4.30;99.90;;;;;;5073270;28;20455;-67
2020/12/25 00:38:49;;;;;;;1.97;1.10;;;4.20;99.90;;;;;;5073744;28;20197;-67
2020/12/25 00:41:14;;;;;;;1.20;1.10;;;4.10;99.90;;;;;;5090008;28;20438;-67
2020/12/25 00:43:40;;;;;;;1.10;1.10;;;4.00;99.90;;;;;;5114330;28;20176;-67
2020/12/25 00:46:13;;;;;;;1.20;1.10;;;4.00;99.90;;;;;;5114645;28;20493;-67
2020/12/25 00:48:39;;;;;;;1.10;1.10;;;4.10;99.90;;;;;;5114216;28;20191;-67
2020/12/25 00:51:05;;;;;;;1.53;1.43;;;4.00;99.90;;;;;;5113569;28;20406;-67
2020/12/25 00:53:30;;;;;;;1.33;1.23;;;4.00;99.90;;;;;;5113999;28;20164;-66
2020/12/25 00:55:56;;;;;;;1.50;1.40;;;4.00;99.90;;;;;;5113972;28;20413;-67
2020/12/25 00:58:21;;;;;;;1.40;1.30;;;4.10;99.90;;;;;;5113688;28;20281;-66
2020/12/25 01:00:47;;;;;;;1.67;1.57;;;4.10;99.90;;;;;;5114005;28;20227;-67
2020/12/25 01:03:12;;;;;;;1.40;1.30;;;4.10;99.90;;;;;;5112882;28;20175;-68
2020/12/25 01:05:39;;;;;;;1.53;1.43;;;4.10;99.90;;;;;;5106515;28;20252;-66
2020/12/25 01:08:05;;;;;;;1.50;1.40;;;4.20;99.90;;;;;;5072801;28;20201;-67
2020/12/25 01:10:31;;;;;;;1.50;1.40;;;4.30;99.90;;;;;;5073363;28;20409;-67
2020/12/25 01:12:56;;;;;;;1.50;1.40;;;4.50;99.90;;;;;;5073001;28;20170;-66
2020/12/25 01:15:22;;;;;;;1.50;1.40;;;4.40;99.90;;;;;;5074127;28;20514;-67
2020/12/25 01:17:48;;;;;;;1.73;1.63;;;4.40;99.90;;;;;;5077421;28;20186;-67
2020/12/25 01:20:14;;;;;;;1.90;1.80;;;4.40;99.90;;;;;;5075471;28;20742;-67
2020/12/25 01:22:40;;;;;;;1.90;1.80;;;4.40;99.90;;;;;;5076703;28;20551;-66
2020/12/25 01:25:05;;;;;;;1.63;1.53;;;4.40;99.90;;;;;;5077175;28;20170;-67
2020/12/25 01:27:31;;;;;;;2.00;1.90;;;4.30;99.90;;;;;;5077176;28;20170;-67
2020/12/25 01:29:56;;;;;;;1.97;1.87;;;4.40;99.90;;;;;;5077068;28;20521;-67
2020/12/25 01:32:22;;;;;;;2.00;1.80;;;4.60;99.90;;;;;;5076851;28;20178;-67
2020/12/25 01:34:47;;;;;;;1.93;1.83;;;4.80;99.90;;;;;;5076519;28;20653;-67
2020/12/25 01:37:13;;;;;;;2.33;2.13;;;4.80;99.90;;;;;;5075921;28;20178;-67
2020/12/25 01:39:38;;;;;;;1.67;1.57;;;4.80;99.90;;;;;;5076602;28;20224;-67
2020/12/25 01:42:04;;;;;;;2.03;1.93;;;4.80;99.90;;;;;;5075286;28;20226;-67
2020/12/25 01:44:29;;;;;;;2.03;1.83;;;4.90;99.90;;;;;;5076196;28;20173;-67
2020/12/25 01:46:56;;;;;;;1.77;1.67;;;5.00;99.90;;;;;;5076755;28;20170;-67
2020/12/25 01:49:21;;;;;;;2.50;2.30;;;5.00;99.90;;;;;;5076188;28;20193;-66
2020/12/25 01:51:47;;;;;;;2.40;2.30;;;4.80;99.90;;;;;;5076264;28;20408;-67
2020/12/25 01:54:13;;;;;;;2.80;2.60;;;4.90;99.90;;;;;;5076557;28;20300;-66
2020/12/25 01:56:41;;;;;;;2.80;2.60;;;4.80;99.90;;;;;;5076759;28;20450;-66
2020/12/25 01:59:07;;;;;;;3.20;3.00;;;4.80;99.90;;;;;;5076498;28;20193;-66
2020/12/25 02:01:33;;;;;;;3.50;3.27;;;4.60;99.90;;;;;;5074738;28;20468;-66
2020/12/25 02:03:58;;;;;;;3.43;3.13;;;4.60;99.90;;;;;;5076361;28;20245;-66
2020/12/25 02:06:24;;;;;;;3.27;3.07;;;4.60;99.90;;;;;;5075397;28;20174;-66
2020/12/25 02:08:49;;;;;;;3.50;3.30;;;4.60;99.90;;;;;;5075168;28;20229;-67
2020/12/25 02:11:15;;;;;;;3.33;3.10;;;4.50;99.90;;;;;;5075873;28;20166;-66
2020/12/25 02:13:41;;;;;;;4.33;4.03;;;4.70;99.90;;;;;;5076128;28;20626;-65
2020/12/25 02:16:07;;;;;;;4.93;4.53;;;4.70;99.90;;;;;;5075832;28;20173;-67
2020/12/25 02:18:36;;;;;;;4.80;4.00;;;4.70;99.90;;;;;;5074385;28;20468;-66
2020/12/25 02:21:03;;;;;;;4.90;4.50;;;4.70;99.90;;;;;;5075837;28;20206;-67
2020/12/25 02:23:28;;;;;;;4.50;4.10;;;4.60;99.90;;;;;;5075666;28;20955;-66
2020/12/25 02:25:54;;;;;;;6.37;4.80;;;4.60;99.90;;;;;;5075799;28;20432;-66
2020/12/25 02:28:19;;;;;;;5.87;5.37;;;4.50;99.90;;;;;;5074570;28;20650;-66
2020/12/25 02:30:45;;;;;;;5.17;4.60;;;4.50;99.90;;;;;;5075649;28;20538;-66
2020/12/25 02:33:11;;;;;;;5.07;4.67;;;4.50;99.90;;;;;;5075563;28;20174;-66
2020/12/25 02:35:36;;;;;;;5.60;5.10;;;4.50;99.90;;;;;;5086658;28;20209;-66
2020/12/25 02:38:02;;;;;;;4.97;4.57;;;4.40;99.90;;;;;;5115923;28;20517;-67
2020/12/25 02:40:27;;;;;;;6.20;5.10;;;4.60;99.90;;;;;;5116663;28;20172;-66
2020/12/25 02:42:53;;;;;;;5.90;5.40;;;4.50;99.90;;;;;;5094390;28;20226;-66
2020/12/25 02:45:18;;;;;;;6.87;5.97;;;4.50;99.90;;;;;;5080705;28;20566;-66
2020/12/25 02:47:44;;;;;;;5.83;5.30;;;4.50;99.90;;;;;;5075991;28;20186;-66
2020/12/25 02:50:09;;;;;;;7.20;6.10;;;4.50;99.90;;;;;;5075279;28;20166;-66
2020/12/25 02:52:35;;;;;;;6.87;5.60;;;4.50;99.90;;;;;;5075197;28;20216;-66
2020/12/25 02:55:01;;;;;;;6.60;6.00;;;4.40;99.90;;;;;;5073929;28;20185;-66
2020/12/25 02:57:26;;;;;;;7.87;5.80;;;4.40;99.90;;;;;;5075682;28;20168;-66
2020/12/25 02:59:52;;;;;;;6.80;6.13;;;4.40;99.90;;;;;;5073923;28;20268;-66
2020/12/25 03:02:17;;;;;;;5.93;5.37;;;4.60;99.90;;;;;;5073576;28;20258;-66
2020/12/25 03:04:44;;;;;;;5.77;5.23;;;4.50;99.90;;;;;;5073698;28;20170;-66
2020/12/25 03:07:11;;;;;;;6.30;5.70;;;4.60;99.90;;;;;;5073113;28;20189;-66
2020/12/25 03:09:36;;;;;;;6.27;5.63;;;4.60;99.90;;;;;;5075112;28;20932;-66
2020/12/25 03:12:02;;;;;;;7.27;6.57;;;4.70;99.90;;;;;;5074910;28;20404;-66
2020/12/25 03:14:27;;;;;;;6.70;5.37;;;4.70;99.90;;;;;;5074684;28;20681;-66
2020/12/25 03:16:53;;;;;;;6.10;5.30;;;4.60;99.90;;;;;;5074969;28;20175;-66
2020/12/25 03:19:19;;;;;;;5.80;5.30;;;4.60;99.90;;;;;;5074259;28;20549;-66
2020/12/25 03:21:44;;;;;;;5.87;5.27;;;4.60;99.90;;;;;;5073854;28;20197;-66
2020/12/25 03:24:10;;;;;;;5.77;5.27;;;4.50;99.90;;;;;;5074681;28;20174;-66
2020/12/25 03:26:36;;;;;;;6.13;4.93;;;4.50;99.90;;;;;;5074661;28;20177;-66
2020/12/25 03:29:02;;;;;;;6.60;6.00;;;4.50;99.90;;;;;;5074309;28;20279;-66
2020/12/25 03:31:27;;;;;;;5.90;5.30;;;4.60;99.90;;;;;;5074347;28;20411;-65
2020/12/25 03:33:53;;;;;;;6.83;6.13;;;4.40;99.90;;;;;;5074334;28;20244;-65
2020/12/25 03:36:18;;;;;;;6.47;5.87;;;4.50;99.90;;;;;;5074267;28;20699;-66
2020/12/25 03:38:44;;;;;;;6.30;5.30;;;4.60;99.90;;;;;;5073989;28;20182;-66
2020/12/25 03:41:10;;;;;;;6.30;5.50;;;4.70;99.90;;;;;;5074480;28;20297;-67
2020/12/25 03:43:35;;;;;;;6.60;5.60;;;4.70;99.90;;;;;;5074311;28;20595;-65
2020/12/25 03:46:01;;;;;;;8.33;6.87;;;4.90;99.90;;;;;;5074927;28;20170;-67
2020/12/25 03:48:28;;;;;;;7.40;6.70;;;4.90;99.90;;;;;;5074150;28;20276;-64
2020/12/25 03:50:54;;;;;;;6.70;6.00;;;5.00;99.90;;;;;;5073828;28;20214;-66
2020/12/25 03:53:20;;;;;;;7.90;5.50;;;5.00;99.90;;;;;;5073994;28;20408;-66
2020/12/25 03:55:45;;;;;;;7.70;5.77;;;4.80;99.90;;;;;;5074217;28;20495;-67
2020/12/25 03:58:11;;;;;;;6.90;6.20;;;4.80;99.90;;;;;;5073724;28;20189;-67
2020/12/25 04:00:36;;;;;;;6.33;5.57;;;4.80;99.90;;;;;;5073634;28;20548;-67
2020/12/25 04:03:02;;;;;;;10.93;6.70;;;4.70;99.90;;;;;;5073735;28;20174;-67
2020/12/25 04:05:28;;;;;;;9.57;7.00;;;4.70;99.90;;;;;;5073478;28;20170;-67
2020/12/25 04:07:53;;;;;;;7.27;6.37;;;4.70;99.90;;;;;;5073393;28;20190;-67
2020/12/25 04:10:19;;;;;;;8.13;7.07;;;4.80;99.90;;;;;;5074421;28;20559;-66
2020/12/25 04:12:45;;;;;;;6.63;6.03;;;4.90;99.90;;;;;;5073709;28;20645;-66
2020/12/25 04:15:10;;;;;;;6.63;6.03;;;5.00;99.90;;;;;;5073764;28;20174;-66
2020/12/25 04:17:36;;;;;;;10.23;6.57;;;4.80;99.90;;;;;;5073756;28;20216;-66
2020/12/25 04:20:02;;;;;;;6.60;6.00;;;4.80;99.90;;;;;;5073387;28;20284;-66
2020/12/25 04:22:27;;;;;;;6.47;5.87;;;4.90;99.90;;;;;;5073017;28;20190;-66
2020/12/25 04:24:53;;;;;;;6.80;6.10;;;4.90;99.90;;;;;;5073705;28;20420;-66
2020/12/25 04:27:18;;;;;;;7.73;6.83;;;5.00;99.90;;;;;;5073661;28;20189;-66
2020/12/25 04:29:44;;;;;;;7.10;6.00;;;5.00;99.90;;;;;;5073233;28;20194;-67
2020/12/25 04:32:09;;;;;;;6.30;5.40;;;5.00;99.90;;;;;;5073374;28;20161;-66
2020/12/25 04:34:35;;;;;;;5.77;5.27;;;5.00;99.90;;;;;;5073323;28;20172;-67
2020/12/25 04:37:01;;;;;;;6.60;5.93;;;5.00;99.90;;;;;;5072796;28;20192;-66
2020/12/25 04:39:26;;;;;;;6.50;5.90;;;4.90;99.90;;;;;;5072644;28;20650;-66
2020/12/25 04:41:52;;;;;;;5.90;5.40;;;4.90;99.90;;;;;;5073057;28;20193;-66
2020/12/25 04:44:17;;;;;;;6.03;5.40;;;4.90;99.90;;;;;;5073742;28;20522;-66
2020/12/25 04:46:43;;;;;;;5.77;5.27;;;4.90;99.90;;;;;;5088337;28;20697;-66
2020/12/25 04:49:09;;;;;;;5.60;5.10;;;4.90;99.90;;;;;;5093816;28;20189;-66
2020/12/25 04:51:35;;;;;;;5.77;5.27;;;4.70;99.90;;;;;;5099405;28;20173;-66
2020/12/25 04:54:01;;;;;;;5.60;5.10;;;4.80;99.90;;;;;;5099734;28;20460;-66
2020/12/25 04:56:26;;;;;;;6.50;4.60;;;4.70;99.90;;;;;;5100202;28;20891;-66
2020/12/25 04:58:53;;;;;;;5.80;5.30;;;4.50;99.90;;;;;;5099859;28;20196;-67
2020/12/25 05:01:19;;;;;;;5.30;4.60;;;4.60;99.90;;;;;;5098610;28;20299;-66
2020/12/25 05:03:45;;;;;;;6.40;5.80;;;4.60;99.90;;;;;;5100224;28;20399;-66
2020/12/25 05:06:18;;;;;;;5.90;5.20;;;4.50;99.90;;;;;;5100154;28;20445;-66
2020/12/25 05:08:46;;;;;;;5.20;4.80;;;4.60;99.90;;;;;;5085393;28;20425;-66
2020/12/25 05:11:13;;;;;;;5.10;4.70;;;4.70;99.90;;;;;;5079764;28;20495;-67
2020/12/25 05:13:50;;;;;;;5.80;5.30;;;4.90;99.90;;;;;;5079544;28;20404;-66
2020/12/25 05:16:17;;;;;;;5.23;4.73;;;4.80;99.90;;;;;;5079670;28;20414;-66
2020/12/25 05:18:45;;;;;;;7.40;5.53;;;4.70;99.90;;;;;;5079566;28;20436;-66
2020/12/25 05:21:13;;;;;;;5.40;5.00;;;4.70;99.90;;;;;;5079756;28;20474;-66
2020/12/25 05:23:40;;;;;;;5.77;5.27;;;4.70;99.90;;;;;;5079047;28;20407;-67
2020/12/25 05:26:10;;;;;;;6.00;5.50;;;4.60;99.90;;;;;;5079775;28;20404;-67
2020/12/25 05:28:45;;;;;;;5.90;5.40;;;4.60;99.90;;;;;;5079310;28;20451;-66
2020/12/25 05:31:11;;;;;;;4.97;4.50;;;4.70;99.90;;;;;;5079646;28;20864;-67
2020/12/25 05:33:38;;;;;;;6.57;5.90;;;4.70;99.90;;;;;;5079321;28;20400;-67
2020/12/25 05:36:08;;;;;;;5.57;5.07;;;4.80;99.90;;;;;;5084733;28;20846;-65
2020/12/25 05:38:48;;;;;;;6.90;6.23;;;4.60;99.90;;;;;;5086075;28;20911;-65
2020/12/25 05:41:14;;;;;;;7.13;6.43;;;4.50;99.90;;;;;;5088406;28;20456;-66
2020/12/25 05:43:47;;;;;;;6.57;5.97;;;4.60;99.90;;;;;;5099836;28;20395;-65
2020/12/25 05:46:13;;;;;;;6.33;5.73;;;4.70;99.90;;;;;;5099857;28;20383;-66
2020/12/25 05:48:39;;;;;;;8.50;7.70;;;4.90;99.90;;;;;;5099485;28;20415;-66
2020/12/25 05:51:10;;;;;;;7.07;6.30;;;4.90;99.90;;;;;;5099480;28;20822;-67
2020/12/25 05:53:36;;;;;;;6.33;5.73;;;4.80;99.90;;;;;;5099279;28;20256;-66
2020/12/25 05:56:03;;;;;;;7.53;6.83;;;4.60;99.90;;;;;;5099694;28;20410;-66
2020/12/25 05:58:34;;;;;;;6.43;5.83;;;4.80;99.90;;;;;;5099515;28;20418;-66
2020/12/25 06:01:01;;;;;;;6.40;5.80;;;4.90;99.90;;;;;;5098969;28;20518;-67
2020/12/25 06:03:26;;;;;;;7.40;6.63;;;4.90;99.90;;;;;;5096563;28;20816;-66
2020/12/25 06:05:59;;;;;;;7.53;6.73;;;4.60;99.90;;;;;;5096835;28;20452;-66
2020/12/25 06:08:46;;;;;;;7.97;7.20;;;4.70;99.90;;;;;;5084324;28;20428;-67
2020/12/25 06:11:15;;;;;;;7.97;7.17;;;4.80;99.90;;;;;;5076303;28;20876;-67
2020/12/25 06:13:42;;;;;;;7.47;6.77;;;4.70;99.90;;;;;;5075862;28;20404;-66
2020/12/25 06:16:14;;;;;;;8.27;7.47;;;4.60;99.90;;;;;;5076092;28;20408;-66
2020/12/25 06:18:51;;;;;;;8.63;7.77;;;4.70;99.90;;;;;;5075713;28;20428;-66
2020/12/25 06:21:31;;;;;;;7.77;7.07;;;4.60;99.90;;;;;;5075983;28;20435;-68
2020/12/25 06:24:01;;;;;;;9.10;8.20;;;4.60;99.90;;;;;;5075517;28;20384;-68
2020/12/25 06:26:28;;;;;;;9.00;8.10;;;4.70;99.90;;;;;;5074330;28;20400;-65
2020/12/25 06:28:53;;;;;;;9.63;7.67;;;4.60;99.90;;;;;;5075673;28;20423;-64
2020/12/25 06:31:41;;;;;;;7.50;6.80;;;4.60;99.90;;;;;;5095753;28;20404;-66
2020/12/25 06:34:07;;;;;;;7.60;6.90;;;4.80;99.90;;;;;;5095778;28;20168;-66
2020/12/25 06:36:33;;;;;;;7.93;7.13;;;4.70;99.90;;;;;;5095957;28;20404;-66
2020/12/25 06:38:59;;;;;;;8.93;8.10;;;4.70;99.90;;;;;;5079400;28;20208;-66
2020/12/25 06:41:27;;;;;;;9.27;8.27;;;4.70;99.90;;;;;;5075201;28;20723;-66
2020/12/25 06:43:54;;;;;;;9.50;7.60;;;4.70;99.90;;;;;;5089508;28;20388;-66
2020/12/25 06:46:33;;;;;;;9.00;7.97;;;4.60;99.90;;;;;;5095992;28;20513;-66
2020/12/25 06:49:02;;;;;;;7.77;7.00;;;4.50;99.90;;;;;;5095240;28;20945;-66
2020/12/25 06:51:27;;;;;;;8.57;7.67;;;4.60;99.90;;;;;;5095345;28;20407;-66
2020/12/25 06:53:56;;;;;;;7.90;7.10;;;4.70;99.90;;;;;;5094902;28;20744;-66
2020/12/25 06:56:22;;;;;;;7.50;6.77;;;4.60;99.90;;;;;;5095653;28;20173;-66
2020/12/25 06:58:50;;;;;;;7.93;6.90;;;4.60;99.90;;;;;;5095221;28;20423;-66
2020/12/25 07:01:34;;;;;;;8.13;6.80;;;4.30;99.90;;;;;;5095295;28;20185;-66
2020/12/25 07:04:00;;;;;;;9.10;7.53;;;4.20;99.90;;;;;;5095151;28;20387;-66
2020/12/25 07:06:29;;;;;;;7.87;7.10;;;4.40;99.90;;;;;;5095075;28;20783;-66
2020/12/25 07:08:55;;;;;;;6.87;6.17;;;4.40;99.90;;;;;;5078901;28;20566;-66
2020/12/25 07:11:21;;;;;;;6.97;6.27;;;4.60;99.90;;;;;;5074757;28;20931;-66
2020/12/25 07:13:47;;;;;;;7.30;6.27;;;4.50;99.90;;;;;;5074021;28;20264;-66
2020/12/25 07:16:12;;;;;;;6.00;5.40;;;4.50;99.90;;;;;;5074672;28;20532;-66
2020/12/25 07:18:38;;;;;;;6.00;5.33;;;4.50;99.90;;;;;;5074364;28;20424;-66
2020/12/25 07:21:07;;;;;;;5.03;4.60;;;4.50;99.90;;;;;;5074712;28;20189;-65
2020/12/25 07:23:33;;;;;;;5.10;4.60;;;4.20;99.90;;;;;;5074240;28;20248;-66
2020/12/25 07:26:00;;;;;;;5.43;5.00;;;4.30;99.90;;;;;;5074387;28;20432;-66
2020/12/25 07:28:29;;;;;;;6.30;5.40;;;4.40;99.90;;;;;;5074890;28;20753;-66
2020/12/25 07:30:56;;;;;;;6.43;5.73;;;4.40;99.90;;;;;;5091504;28;20415;-66
2020/12/25 07:33:22;;;;;;;5.73;5.20;;;4.50;99.90;;;;;;5094478;28;20932;-66
2020/12/25 07:35:49;;;;;;;4.97;4.53;;;4.40;99.90;;;;;;5094753;28;20911;-65
2020/12/25 07:38:16;;;;;;;4.77;4.37;;;4.40;99.90;;;;;;5084151;28;20440;-66
2020/12/25 07:40:44;;;;;;;6.33;5.67;;;4.30;99.90;;;;;;5074259;28;20400;-66
2020/12/25 07:43:11;;;;;;;5.07;4.57;;;4.30;99.90;;;;;;5074201;28;20392;-66
2020/12/25 07:45:37;;;;;;;5.97;5.37;;;4.30;99.90;;;;;;5074177;28;20458;-65
2020/12/25 07:48:04;;;;;;;4.87;4.47;;;4.50;99.90;;;;;;5074492;28;20448;-66
2020/12/25 07:50:44;;;;;;;5.80;5.20;;;4.50;99.90;;;;;;5074531;28;20401;-65
2020/12/25 07:53:15;;;;;;;5.10;4.60;;;4.70;99.90;;;;;;5073766;28;20408;-66
2020/12/25 07:55:50;;;;;;;4.53;4.13;;;4.70;99.90;;;;;;5074502;28;20380;-65
2020/12/25 07:58:17;;;;;;;6.00;5.50;;;4.70;99.90;;;;;;5074746;28;20454;-64
2020/12/25 08:00:43;;;;;;;6.00;5.50;;;4.80;99.90;;;;;;5074034;28;20496;-66
2020/12/25 08:03:10;;;;;;;6.23;5.33;;;4.80;99.90;;;;;;5074351;28;20434;-66
2020/12/25 08:05:36;;;;;;;5.43;4.80;;;4.70;99.90;;;;;;5073948;28;20487;-65
2020/12/25 08:08:03;;;;;;;5.30;4.80;;;4.50;99.90;;;;;;5073701;28;20447;-66
2020/12/25 08:10:29;;;;;;;5.40;4.90;;;4.60;99.90;;;;;;5073893;28;20434;-65
2020/12/25 08:12:57;;;;;;;5.13;4.63;;;4.50;99.90;;;;;;5074028;28;20422;-66
2020/12/25 08:15:26;;;;;;;5.63;5.13;;;4.40;99.90;;;;;;5074116;28;20888;-66
2020/12/25 08:17:54;;;;;;;6.23;5.67;;;4.40;99.90;;;;;;5074455;28;20432;-65
2020/12/25 08:20:23;;;;;;;6.00;5.40;;;4.40;99.90;;;;;;5074496;28;20431;-65
2020/12/25 08:22:50;;;;;;;6.30;5.70;;;4.50;99.90;;;;;;5074514;28;20503;-66
2020/12/25 08:25:18;;;;;;;6.60;6.00;;;4.70;99.90;;;;;;5073169;28;20888;-65
2020/12/25 08:27:44;;;;;;;7.30;6.60;;;4.90;99.90;;;;;;5077568;28;20466;-65
2020/12/25 08:30:10;;;;;;;8.00;7.20;;;4.90;99.90;;;;;;5093466;28;20407;-65
2020/12/25 08:32:36;;;;;;;7.80;6.67;;;4.60;99.90;;;;;;5093826;28;20414;-65
2020/12/25 08:35:16;;;;;;;7.80;7.10;;;4.70;99.90;;;;;;5093405;28;20181;-65
2020/12/25 08:38:02;;;;;;;9.83;8.80;;;4.60;99.90;;;;;;5087992;28;20582;-65
2020/12/25 08:40:39;;;;;;;9.20;8.30;;;4.60;99.90;;;;;;5073407;28;20385;-65
2020/12/25 08:43:05;;;;;;;9.40;8.30;;;4.50;99.90;;;;;;5072965;28;20735;-66
2020/12/25 08:45:31;;;;;;;10.30;8.70;;;4.40;99.90;;;;;;5077787;28;20409;-65
2020/12/25 08:48:11;;;;;;;14.30;10.07;;;4.60;99.90;;;;;;5112588;28;20418;-65
2020/12/25 08:50:38;;;;;;;11.80;9.73;;;4.70;99.90;;;;;;5114046;28;20165;-65
2020/12/25 08:53:17;;;;;;;11.30;10.10;;;4.70;99.90;;;;;;5112536;28;20844;-66
2020/12/25 08:55:44;;;;;;;11.97;9.80;;;4.70;99.90;;;;;;5114273;28;20424;-66
2020/12/25 08:58:09;;;;;;;10.70;9.60;;;4.70;99.90;;;;;;5113323;28;20895;-66
2020/12/25 09:00:35;;;;;;;10.80;9.67;;;4.90;99.90;;;;;;5113891;28;20447;-66
2020/12/25 09:03:01;;;;;;;13.00;11.70;;;4.90;99.90;;;;;;5113893;28;20169;-65
2020/12/25 09:05:26;;;;;;;12.30;10.77;;;5.00;99.90;;;;;;5113554;28;20648;-65
2020/12/25 09:07:52;;;;;;;11.73;9.93;;;5.00;99.90;;;;;;5100142;28;20190;-65
2020/12/25 09:10:20;;;;;;;13.77;11.20;;;4.90;99.90;;;;;;5073391;28;20193;-60
2020/12/25 09:12:46;;;;;;;13.87;12.37;;;5.00;99.90;;;;;;5072992;28;20173;-62
2020/12/25 09:15:12;;;;;;;14.87;11.40;;;5.20;99.90;;;;;;5072941;28;20958;-62
2020/12/25 09:17:37;;;;;;;13.10;9.30;;;5.20;99.90;;;;;;5073123;28;20239;-62
2020/12/25 09:20:04;;;;;;;10.90;9.33;;;5.10;99.90;;;;;;5073111;28;20638;-62
2020/12/25 09:22:29;;;;;;;11.13;9.40;;;5.00;99.90;;;;;;5079366;28;20217;-62
2020/12/25 09:24:55;;;;;;;11.10;9.10;;;4.80;99.90;;;;;;5093290;28;20849;-62
2020/12/25 09:27:20;;;;;;;11.10;9.03;;;4.80;99.90;;;;;;5093024;28;20173;-62
2020/12/25 09:29:46;;;;;;;10.33;9.13;;;4.80;99.90;;;;;;5092837;28;20230;-61
2020/12/25 09:32:11;;;;;;;11.30;9.87;;;4.80;99.90;;;;;;5092842;28;20185;-61
2020/12/25 09:34:37;;;;;;;11.10;9.33;;;4.80;99.90;;;;;;5092861;28;20176;-61
2020/12/25 09:37:02;;;;;;;11.30;10.10;;;4.70;99.90;;;;;;5095069;28;20169;-61
2020/12/25 09:39:28;;;;;;;13.80;10.90;;;4.70;99.90;;;;;;5075162;28;20247;-61
2020/12/25 09:41:53;;;;;;;11.63;10.43;;;4.80;99.90;;;;;;5076411;28;20193;-60
2020/12/25 09:44:19;;;;;;;12.33;10.67;;;5.00;99.90;;;;;;5076348;28;20174;-60
2020/12/25 09:46:45;;;;;;;11.27;9.83;;;5.00;99.90;;;;;;5076640;28;20176;-61
2020/12/25 09:49:10;;;;;;;15.50;12.23;;;4.80;99.90;;;;;;5076217;28;20178;-61
2020/12/25 09:51:36;;;;;;;13.87;12.37;;;4.90;99.90;;;;;;5076237;28;20197;-59
2020/12/25 09:54:01;;;;;;;12.23;11.00;;;5.00;99.90;;;;;;5075983;28;20223;-62
2020/12/25 09:56:27;;;;;;;14.83;13.33;;;5.10;99.90;;;;;;5076318;28;20177;-61
2020/12/25 09:58:53;;;;;;;11.70;10.40;;;5.10;99.90;;;;;;5075916;28;20428;-62
2020/12/25 10:01:21;;;;;;;12.00;8.97;;;5.20;99.90;;;;;;5075895;28;20595;-59
2020/12/25 10:03:46;;;;;;;9.60;8.70;;;5.30;99.90;;;;;;5075943;28;20249;-62
2020/12/25 10:06:12;;;;;;;10.47;8.80;;;5.50;99.90;;;;;;5075838;28;20499;-61
2020/12/25 10:08:38;;;;;;;11.07;8.60;;;5.30;99.90;;;;;;5075934;28;20194;-62
2020/12/25 10:11:03;;;;;;;8.07;7.10;;;5.20;99.90;;;;;;5075527;28;20201;-62
2020/12/25 10:13:29;;;;;;;9.13;8.10;;;5.20;99.90;;;;;;5075792;28;20196;-62
2020/12/25 10:15:54;;;;;;;8.47;7.60;;;5.30;99.90;;;;;;5075893;28;20170;-62
2020/12/25 10:18:20;;;;;;;13.80;8.77;;;5.30;99.90;;;;;;5076592;28;20240;-63
2020/12/25 10:20:47;;;;;;;8.33;7.50;;;5.40;99.90;;;;;;5076132;28;20189;-63
2020/12/25 10:23:13;;;;;;;9.57;8.57;;;5.40;99.90;;;;;;5075740;28;20168;-62
2020/12/25 10:25:38;;;;;;;9.70;7.17;;;5.40;99.90;;;;;;5075227;28;20971;-62
2020/12/25 10:28:04;;;;;;;7.93;7.13;;;5.30;99.90;;;;;;5075993;28;20200;-62
2020/12/25 10:30:29;;;;;;;8.03;7.00;;;5.30;99.90;;;;;;5075510;28;20233;-61
2020/12/25 10:32:55;;;;;;;8.50;6.97;;;5.40;99.90;;;;;;5075534;28;20170;-60
2020/12/25 10:35:21;;;;;;;6.93;6.23;;;5.30;99.90;;;;;;5076017;28;20178;-61
2020/12/25 10:37:47;;;;;;;7.70;6.93;;;5.50;99.90;;;;;;5075427;28;20190;-61
2020/12/25 10:40:12;;;;;;;7.73;6.90;;;5.40;99.90;;;;;;5074795;28;20975;-61
2020/12/25 10:42:39;;;;;;;8.80;6.47;;;5.40;99.90;;;;;;5075029;28;20569;-61
2020/12/25 10:45:05;;;;;;;10.23;7.53;;;5.30;99.90;;;;;;5075119;28;20166;-61
2020/12/25 10:47:31;;;;;;;10.70;6.87;;;5.20;99.90;;;;;;5074637;28;20837;-62
2020/12/25 10:49:56;;;;;;;7.87;6.50;;;5.20;99.90;;;;;;5074935;28;20166;-62
2020/12/25 10:52:22;;;;;;;7.80;7.00;;;5.20;99.90;;;;;;5096082;28;20199;-62
2020/12/25 10:54:47;;;;;;;7.43;6.70;;;5.20;99.90;;;;;;5095125;28;20166;-64
2020/12/25 10:57:13;;;;;;;7.90;7.10;;;5.40;99.90;;;;;;5095321;28;20647;-62
2020/12/25 10:59:38;;;;;;;8.93;7.20;;;5.50;99.90;;;;;;5095219;28;20648;-62
2020/12/25 11:02:04;;;;;;;7.87;7.13;;;5.50;99.90;;;;;;5095747;28;20645;-62
2020/12/25 11:04:29;;;;;;;7.53;6.73;;;5.40;99.90;;;;;;5095446;28;20173;-62
2020/12/25 11:06:55;;;;;;;7.67;6.93;;;5.30;99.90;;;;;;5095081;28;20172;-62
2020/12/25 11:09:21;;;;;;;8.07;7.23;;;5.20;99.90;;;;;;5089176;28;20202;-63
2020/12/25 11:11:46;;;;;;;8.90;7.20;;;5.10;99.90;;;;;;5074909;28;20257;-63
2020/12/25 11:14:12;;;;;;;7.80;5.93;;;5.10;99.90;;;;;;5075560;28;20180;-62
2020/12/25 11:16:37;;;;;;;9.23;6.80;;;5.20;99.90;;;;;;5075074;28;20264;-62
2020/12/25 11:19:07;;;;;;;8.30;6.67;;;5.00;99.90;;;;;;5074740;28;20209;-62
2020/12/25 11:21:33;;;;;;;6.67;6.07;;;4.90;99.90;;;;;;5087273;28;20204;-63
2020/12/25 11:24:00;;;;;;;10.33;7.30;;;4.90;99.90;;;;;;5094159;28;20411;-62
2020/12/25 11:26:34;;;;;;;8.67;6.67;;;5.00;99.90;;;;;;5093442;28;20408;-62
2020/12/25 11:29:03;;;;;;;6.13;5.53;;;5.00;99.90;;;;;;5094789;28;20481;-62
2020/12/25 11:31:29;;;;;;;7.70;6.90;;;5.00;99.90;;;;;;5094509;28;20416;-62
2020/12/25 11:33:55;;;;;;;8.00;6.07;;;5.10;99.90;;;;;;5094699;28;20766;-62
2020/12/25 11:36:32;;;;;;;7.13;6.40;;;5.20;99.90;;;;;;5094662;28;20403;-62
2020/12/25 11:38:58;;;;;;;8.07;6.67;;;5.10;99.90;;;;;;5092233;28;20297;-62
2020/12/25 11:41:25;;;;;;;6.70;6.00;;;4.80;99.90;;;;;;5073831;28;20542;-62
2020/12/25 11:43:52;;;;;;;7.00;6.00;;;4.70;99.90;;;;;;5074072;28;20415;-62
2020/12/25 11:46:19;;;;;;;6.73;5.80;;;4.90;99.90;;;;;;5074431;28;20412;-63
2020/12/25 11:48:45;;;;;;;6.97;5.73;;;5.00;99.90;;;;;;5074552;28;20431;-62
2020/12/25 11:51:22;;;;;;;7.10;6.03;;;5.10;99.90;;;;;;5074263;28;20419;-62
2020/12/25 11:53:48;;;;;;;6.93;6.07;;;5.10;99.90;;;;;;5073955;28;20412;-61
2020/12/25 11:56:18;;;;;;;7.40;6.67;;;4.90;99.90;;;;;;5073653;28;20407;-62
2020/12/25 11:58:44;;;;;;;6.33;5.43;;;4.90;99.90;;;;;;5074085;28;20473;-61
2020/12/25 12:01:09;;;;;;;7.50;6.10;;;4.90;99.90;;;;;;5074210;28;20456;-61
2020/12/25 12:03:35;;;;;;;8.20;6.10;;;5.00;99.90;;;;;;5074637;28;20230;-61
2020/12/25 12:06:00;;;;;;;6.60;5.60;;;5.00;99.90;;;;;;5074643;28;20631;-60
2020/12/25 12:08:26;;;;;;;5.90;5.30;;;5.00;99.90;;;;;;5072954;28;20224;-61
2020/12/25 12:10:51;;;;;;;7.30;6.23;;;5.20;99.90;;;;;;5073934;28;20181;-62
2020/12/25 12:13:17;;;;;;;6.00;5.50;;;5.20;99.90;;;;;;5074431;28;20211;-61
2020/12/25 12:15:43;;;;;;;6.97;5.40;;;5.20;99.90;;;;;;5084465;28;20172;-60
2020/12/25 12:18:08;;;;;;;6.00;5.40;;;5.20;99.90;;;;;;5094750;28;20185;-61
2020/12/25 12:20:36;;;;;;;6.23;5.43;;;5.10;99.90;;;;;;5094470;28;20188;-61
2020/12/25 12:23:01;;;;;;;5.50;4.83;;;5.10;99.90;;;;;;5094507;28;20204;-61
2020/12/25 12:25:27;;;;;;;5.77;5.20;;;5.00;99.90;;;;;;5094409;28;20399;-61
2020/12/25 12:27:54;;;;;;;8.13;6.30;;;4.90;99.90;;;;;;5094352;28;20525;-61
2020/12/25 12:30:19;;;;;;;6.70;5.17;;;4.90;99.90;;;;;;5094293;28;20395;-61
2020/12/25 12:32:45;;;;;;;5.80;5.30;;;4.90;99.90;;;;;;5094349;28;20396;-61
2020/12/25 12:35:11;;;;;;;6.63;5.97;;;4.90;99.90;;;;;;5094295;28;20177;-62
2020/12/25 12:37:37;;;;;;;6.87;5.70;;;5.00;99.90;;;;;;5094151;28;20660;-61
2020/12/25 12:40:03;;;;;;;5.83;5.23;;;4.80;99.90;;;;;;5083279;28;20712;-61
2020/12/25 12:42:32;;;;;;;7.60;5.67;;;4.70;99.90;;;;;;5073943;28;20232;-60
2020/12/25 12:44:57;;;;;;;5.77;5.23;;;4.70;99.90;;;;;;5074499;28;20405;-61
2020/12/25 12:47:23;;;;;;;5.37;4.97;;;4.80;99.90;;;;;;5076826;28;20404;-63
2020/12/25 12:49:48;;;;;;;5.70;5.20;;;4.80;99.90;;;;;;5096433;28;20169;-65
2020/12/25 12:52:14;;;;;;;5.50;4.90;;;4.90;99.90;;;;;;5093837;28;20531;-65
2020/12/25 12:54:40;;;;;;;5.47;4.97;;;4.80;99.90;;;;;;5092929;28;20253;-65